createdAt,value
2023-05-14T00:03:50.861Z,1.38
2023-05-14T00:08:44.274Z,1.40
2023-05-14T00:13:37.807Z,1.33
2023-05-14T00:18:31.884Z,1.40
2023-05-14T00:23:25.693Z,1.10
2023-05-14T00:28:18.639Z,1.48
2023-05-14T00:33:11.395Z,1.40
2023-05-14T00:38:04.145Z,1.25
2023-05-14T00:42:58.483Z,1.30
2023-05-14T00:47:51.374Z,1.20
2023-05-14T00:52:45.517Z,1.13
2023-05-14T00:57:38.271Z,1.00
2023-05-14T01:02:32.072Z,1.13
2023-05-14T01:08:01.883Z,1.20
2023-05-14T01:13:21.184Z,1.27
2023-05-14T01:18:17.555Z,1.27
2023-05-14T01:23:10.685Z,1.25
2023-05-14T01:28:30.104Z,1.10
2023-05-14T01:33:26.871Z,1.20
2023-05-14T01:38:20.702Z,1.10
2023-05-14T01:43:15.962Z,1.42
2023-05-14T01:48:09.125Z,1.10
2023-05-14T01:53:02.496Z,0.75
2023-05-14T01:57:55.057Z,0.93
2023-05-14T02:02:46.829Z,1.42
2023-05-14T02:07:41.471Z,0.98
2023-05-14T02:12:34.928Z,1.25
2023-05-14T02:17:28.626Z,1.13
2023-05-14T02:22:21.317Z,1.23
2023-05-14T02:27:14.053Z,1.00
2023-05-14T02:32:09.239Z,1.13
2023-05-14T02:37:02.436Z,0.90
2023-05-14T02:41:57.940Z,1.20
2023-05-14T02:46:51.115Z,0.82
2023-05-14T02:51:44.961Z,1.27
2023-05-14T02:56:38.106Z,0.70
2023-05-14T03:01:30.874Z,0.90
2023-05-14T03:06:23.691Z,1.15
2023-05-14T03:11:16.724Z,0.90
2023-05-14T03:16:10.512Z,0.70
2023-05-14T03:21:05.663Z,0.80
2023-05-14T03:25:58.096Z,0.52
2023-05-14T03:30:51.841Z,0.93
2023-05-14T03:35:45.707Z,0.80
2023-05-14T03:40:38.428Z,0.88
2023-05-14T03:45:31.917Z,0.73
2023-05-14T03:50:26.116Z,0.95
2023-05-14T03:55:22.261Z,1.00
2023-05-14T04:00:16.097Z,1.30
2023-05-14T04:05:11.051Z,1.00
2023-05-14T04:10:04.763Z,1.33
2023-05-14T04:15:00.409Z,0.90
2023-05-14T04:19:53.769Z,0.63
2023-05-14T04:24:50.243Z,0.63
2023-05-14T04:29:42.998Z,0.73
2023-05-14T04:34:35.631Z,1.10
2023-05-14T04:39:27.828Z,0.68
2023-05-14T04:44:21.273Z,0.63
2023-05-14T04:49:15.126Z,0.82
2023-05-14T04:54:08.910Z,0.70
2023-05-14T04:59:01.448Z,0.95
2023-05-14T05:03:54.916Z,0.60
2023-05-14T05:08:47.566Z,0.70
2023-05-14T05:13:41.105Z,0.43
2023-05-14T05:18:33.818Z,0.50
2023-05-14T05:23:26.468Z,0.70
2023-05-14T05:28:20.368Z,0.70
2023-05-14T05:33:13.686Z,0.60
2023-05-14T05:38:06.648Z,0.68
2023-05-14T05:43:00.900Z,0.60
2023-05-14T05:47:55.016Z,0.80
2023-05-14T05:52:49.021Z,0.70
2023-05-14T05:57:43.313Z,0.90
2023-05-14T06:02:37.795Z,0.60
2023-05-14T06:07:31.635Z,0.70
2023-05-14T06:12:24.254Z,0.70
2023-05-14T06:17:16.574Z,0.60
2023-05-14T06:22:10.001Z,0.80
2023-05-14T06:27:04.312Z,0.70
2023-05-14T06:32:03.441Z,0.80
2023-05-14T06:36:56.153Z,0.52
2023-05-14T06:41:50.242Z,1.02
2023-05-14T06:46:44.785Z,0.70
2023-05-14T06:51:39.073Z,1.00
2023-05-14T06:56:32.616Z,0.80
2023-05-14T07:01:25.688Z,0.73
2023-05-14T07:06:18.548Z,0.70
2023-05-14T07:11:13.220Z,0.63
2023-05-14T07:16:11.970Z,0.60
2023-05-14T07:21:07.833Z,0.63
2023-05-14T07:26:01.761Z,0.60
2023-05-14T07:30:54.668Z,0.80
2023-05-14T07:35:48.717Z,0.77
2023-05-14T07:40:42.026Z,0.80
2023-05-14T07:45:34.991Z,0.98
2023-05-14T07:50:27.214Z,0.68
2023-05-14T07:55:21.921Z,0.90
2023-05-14T08:00:15.032Z,0.98
2023-05-14T08:05:10.032Z,0.80
2023-05-14T08:10:03.160Z,0.60
2023-05-14T08:14:56.705Z,0.85
2023-05-14T08:19:50.296Z,0.85
2023-05-14T08:24:43.867Z,1.50
2023-05-14T08:29:37.472Z,1.10
2023-05-14T08:34:31.368Z,1.52
2023-05-14T08:39:24.982Z,2.50
2023-05-14T08:44:26.410Z,3.03
2023-05-14T08:49:45.362Z,2.60
2023-05-14T08:54:38.549Z,3.10
2023-05-14T08:59:31.313Z,3.17
2023-05-14T09:04:25.166Z,3.50
2023-05-14T09:09:19.709Z,4.22
2023-05-14T09:14:12.993Z,3.80
2023-05-14T09:19:07.649Z,3.22
2023-05-14T09:24:00.320Z,2.58
2023-05-14T09:28:58.144Z,3.17
2023-05-14T09:33:54.080Z,2.72
2023-05-14T09:38:47.495Z,2.38
2023-05-14T09:43:40.114Z,1.88
2023-05-14T09:48:33.691Z,2.55
2023-05-14T09:53:26.867Z,2.35
2023-05-14T09:58:20.751Z,1.70
2023-05-14T10:03:17.997Z,1.70
2023-05-14T10:08:24.403Z,2.00
2023-05-14T10:13:24.874Z,1.15
2023-05-14T10:18:20.157Z,1.40
2023-05-14T10:23:13.978Z,1.60
2023-05-14T10:28:07.811Z,1.48
2023-05-14T10:33:13.882Z,1.30
2023-05-14T10:38:09.738Z,1.30
2023-05-14T10:43:04.899Z,1.50
2023-05-14T10:47:58.258Z,1.38
2023-05-14T10:52:51.787Z,1.10
2023-05-14T10:57:47.061Z,1.30
2023-05-14T11:02:40.856Z,1.42
2023-05-14T11:07:36.500Z,1.25
2023-05-14T11:12:29.140Z,1.38
2023-05-14T11:17:21.884Z,1.33
2023-05-14T11:22:15.392Z,1.02
2023-05-14T11:27:29.157Z,1.13
2023-05-14T11:32:22.943Z,0.90
2023-05-14T11:37:17.204Z,0.68
2023-05-14T11:42:13.038Z,1.55
2023-05-14T11:47:07.485Z,1.10
2023-05-14T11:52:02.638Z,0.70
2023-05-14T11:56:56.625Z,0.80
2023-05-14T12:01:50.818Z,0.80
2023-05-14T12:06:43.859Z,1.40
2023-05-14T12:11:37.827Z,156.55
2023-05-14T12:16:33.984Z,124.30
2023-05-14T12:21:30.629Z,101.60
2023-05-14T12:26:24.436Z,90.13
2023-05-14T12:31:18.266Z,66.47
2023-05-14T12:36:21.435Z,57.58
2023-05-14T12:41:15.520Z,50.15
2023-05-14T12:46:08.476Z,46.38
2023-05-14T12:51:01.331Z,43.38
2023-05-14T12:55:55.757Z,41.15
2023-05-14T13:00:49.027Z,37.40
2023-05-14T13:05:42.564Z,36.70
2023-05-14T13:10:35.127Z,35.38
2023-05-14T13:15:28.026Z,34.33
2023-05-14T13:20:20.390Z,32.92
2023-05-14T13:25:14.504Z,31.88
2023-05-14T13:30:10.807Z,31.08
2023-05-14T13:35:05.691Z,31.55
2023-05-14T13:39:58.286Z,28.95
2023-05-14T13:44:50.795Z,28.95
2023-05-14T13:49:44.279Z,28.60
2023-05-14T13:54:37.330Z,28.13
2023-05-14T13:59:29.795Z,25.48
2023-05-14T14:04:23.360Z,25.73
2023-05-14T14:09:16.792Z,26.50
2023-05-14T14:14:11.643Z,25.05
2023-05-14T14:19:06.021Z,24.10
2023-05-14T14:23:59.773Z,23.33
2023-05-14T14:28:53.253Z,22.10
2023-05-14T14:33:47.227Z,21.52
2023-05-14T14:38:40.100Z,21.05
2023-05-14T14:43:34.319Z,21.15
2023-05-14T14:48:35.372Z,20.63
2023-05-14T14:53:28.944Z,19.42
2023-05-14T14:58:21.635Z,19.85
2023-05-14T15:03:16.636Z,19.90
2023-05-14T15:08:09.751Z,17.85
2023-05-14T15:13:03.899Z,18.55
2023-05-14T15:17:57.308Z,18.95
2023-05-14T15:22:55.412Z,18.45
2023-05-14T15:27:48.508Z,17.92
2023-05-14T15:32:42.407Z,17.50
2023-05-14T15:37:44.305Z,17.73
2023-05-14T15:42:38.031Z,17.15
2023-05-14T15:47:31.971Z,16.85
2023-05-14T15:52:24.978Z,16.60
2023-05-14T15:57:19.744Z,16.10
2023-05-14T16:02:13.204Z,17.10
2023-05-14T16:07:11.418Z,16.55
2023-05-14T16:12:04.808Z,15.52
2023-05-14T16:16:58.211Z,16.08
2023-05-14T16:21:51.275Z,15.50
2023-05-14T16:26:44.148Z,14.75
2023-05-14T16:31:37.072Z,14.43
2023-05-14T16:36:30.127Z,14.20
2023-05-14T16:41:23.257Z,13.30
2023-05-14T16:46:17.860Z,14.43
2023-05-14T16:51:11.322Z,14.32
2023-05-14T16:56:04.481Z,13.65
2023-05-14T17:00:57.579Z,19.17
2023-05-14T17:05:50.113Z,37.72
2023-05-14T17:10:44.101Z,36.17
2023-05-14T17:15:38.235Z,35.88
2023-05-14T17:20:31.531Z,35.42
2023-05-14T17:25:27.700Z,29.83
2023-05-14T17:30:20.687Z,34.10
2023-05-14T17:35:14.322Z,32.90
2023-05-14T17:40:09.331Z,29.55
2023-05-14T17:45:02.893Z,26.80
2023-05-14T17:49:56.633Z,23.38
2023-05-14T17:54:50.105Z,21.58
2023-05-14T17:59:43.027Z,21.98
2023-05-14T18:04:36.449Z,21.77
2023-05-14T18:09:29.186Z,20.17
2023-05-14T18:14:22.632Z,19.70
2023-05-14T18:19:16.431Z,20.63
2023-05-14T18:24:11.050Z,20.25
2023-05-14T18:29:03.527Z,18.27
2023-05-14T18:33:56.573Z,18.80
2023-05-14T18:38:49.694Z,18.77
2023-05-14T18:43:43.222Z,17.17
2023-05-14T18:48:36.752Z,16.98
2023-05-14T18:53:30.002Z,15.13
2023-05-14T18:58:23.092Z,16.08
2023-05-14T19:03:16.382Z,14.23
2023-05-14T19:08:09.877Z,13.93
2023-05-14T19:13:04.998Z,13.35
2023-05-14T19:17:57.913Z,14.00
2023-05-14T19:22:52.721Z,12.35
2023-05-14T19:27:48.186Z,12.43
2023-05-14T19:32:41.326Z,12.00
2023-05-14T19:37:34.913Z,12.20
2023-05-14T19:42:29.313Z,10.65
2023-05-14T19:47:22.019Z,10.40
2023-05-14T19:52:14.232Z,10.23
2023-05-14T19:57:06.738Z,10.00
2023-05-14T20:01:59.403Z,9.27
2023-05-14T20:06:53.128Z,8.88
2023-05-14T20:11:47.156Z,8.80
2023-05-14T20:16:40.250Z,9.15
2023-05-14T20:21:33.495Z,9.05
2023-05-14T20:26:29.302Z,8.27
2023-05-14T20:31:22.403Z,8.13
2023-05-14T20:36:15.617Z,6.55
2023-05-14T20:41:08.831Z,7.22
2023-05-14T20:46:02.732Z,7.85
2023-05-14T20:50:56.032Z,7.22
2023-05-14T20:55:49.320Z,6.60
2023-05-14T21:00:42.420Z,6.68
2023-05-14T21:05:35.598Z,7.43
2023-05-14T21:10:28.994Z,7.00
2023-05-14T21:15:23.018Z,6.53
2023-05-14T21:20:16.932Z,6.85
2023-05-14T21:25:11.667Z,5.88
2023-05-14T21:30:06.278Z,7.10
2023-05-14T21:34:59.294Z,7.18
2023-05-14T21:39:52.683Z,6.43
2023-05-14T21:44:46.213Z,6.38
2023-05-14T21:49:38.772Z,6.30
2023-05-14T21:54:31.276Z,6.07
2023-05-14T21:59:25.926Z,5.60
2023-05-14T22:04:19.274Z,6.20
2023-05-14T22:09:13.705Z,5.45
2023-05-14T22:14:06.754Z,5.97
2023-05-14T22:19:00.000Z,5.55
2023-05-14T22:23:53.646Z,5.70
2023-05-14T22:28:46.333Z,6.43
2023-05-14T22:33:39.815Z,5.32
2023-05-14T22:38:38.370Z,5.82
2023-05-14T22:43:31.760Z,5.25
2023-05-14T22:48:25.627Z,5.68
2023-05-14T22:53:18.569Z,5.97
2023-05-14T22:58:10.869Z,5.50
2023-05-14T23:03:03.052Z,5.15
2023-05-14T23:07:56.052Z,5.15
2023-05-14T23:12:50.061Z,5.82
2023-05-14T23:17:42.392Z,5.15
2023-05-14T23:22:35.359Z,5.18
2023-05-14T23:27:29.586Z,5.22
2023-05-14T23:32:22.872Z,5.30
2023-05-14T23:37:16.711Z,4.88
2023-05-14T23:42:09.840Z,5.68
2023-05-14T23:47:03.323Z,4.75
2023-05-14T23:51:57.475Z,4.40
2023-05-14T23:56:50.715Z,4.82
